Time;durP1;ratioP1;P1;durP2;ratioP2;P2;SDS_P1;SDS_P2;PMS_P1;PMS_P2;Temp;Humidity;BMP_temperature;BMP_pressure;BME280_temperature;BME280_humidity;BME280_pressure;Samples;Min_cycle;Max_cycle;Signal;HPM_P1;HPM_P2
2023/01/23 00:01:33;;;;;;;45.00;21.20;;;;;;;-1.01;100.00;97943.19;109382;1269;22540;-79
2023/01/23 00:04:06;;;;;;;37.40;22.20;;;;;;;-1.00;100.00;97945.65;109342;1264;22524;-79
2023/01/23 00:06:37;;;;;;;40.80;20.50;;;;;;;-0.98;100.00;97946.92;109325;1266;26418;-79
2023/01/23 00:09:11;;;;;;;37.20;18.70;;;;;;;-1.01;100.00;97950.09;109375;1269;22643;-79
2023/01/23 00:11:42;;;;;;;37.00;20.20;;;;;;;-1.05;100.00;97952.63;109311;1271;23295;-79
2023/01/23 00:14:13;;;;;;;49.10;22.70;;;;;;;-1.08;100.00;97956.81;109397;1269;22522;-79
2023/01/23 00:16:44;;;;;;;44.00;23.40;;;;;;;-1.07;100.00;97959.27;109268;1272;22526;-79
2023/01/23 00:19:15;;;;;;;42.00;22.10;;;;;;;-1.06;100.00;97964.89;109282;1271;22535;-79
2023/01/23 00:21:46;;;;;;;38.60;19.50;;;;;;;-1.08;100.00;97965.63;109285;1269;23173;-79
2023/01/23 00:24:17;;;;;;;36.70;20.20;;;;;;;-1.15;100.00;97970.27;108918;1270;22511;-80
2023/01/23 00:26:48;;;;;;;44.70;20.80;;;;;;;-1.23;100.00;97967.85;109309;1267;22609;-80
2023/01/23 00:29:19;;;;;;;38.00;21.50;;;;;;;-1.28;100.00;97975.66;109386;1267;22553;-81
2023/01/23 00:31:50;;;;;;;44.20;21.80;;;;;;;-1.30;100.00;97972.98;109312;1268;22592;-80
2023/01/23 00:34:21;;;;;;;44.90;21.50;;;;;;;-1.31;100.00;97973.21;109340;1264;22569;-80
2023/01/23 00:36:52;;;;;;;37.00;21.60;;;;;;;-1.29;100.00;97976.48;109381;1266;24269;-80
2023/01/23 00:39:24;;;;;;;42.00;21.90;;;;;;;-1.26;100.00;97976.80;109386;1264;22518;-80
2023/01/23 00:41:54;;;;;;;40.70;21.20;;;;;;;-1.20;100.00;97986.27;109347;1271;23190;-80
2023/01/23 00:44:25;;;;;;;40.60;22.00;;;;;;;-1.15;100.00;97989.52;109367;1270;24228;-80
2023/01/23 00:46:56;;;;;;;37.40;19.70;;;;;;;-1.14;100.00;97987.98;109404;1264;22548;-80
2023/01/23 00:49:28;;;;;;;49.30;22.50;;;;;;;-1.14;100.00;97990.14;109414;1270;22721;-80
2023/01/23 00:51:59;;;;;;;39.60;21.20;;;;;;;-1.12;100.00;97991.81;109301;1271;22629;-80
2023/01/23 00:54:30;;;;;;;42.90;21.50;;;;;;;-1.09;100.00;97996.67;109332;1270;24308;-80
2023/01/23 00:57:01;;;;;;;47.10;19.60;;;;;;;-1.08;100.00;97997.11;109323;1271;23542;-80
2023/01/23 00:59:33;;;;;;;51.70;19.70;;;;;;;-1.09;100.00;98001.64;109315;1266;22534;-80
2023/01/23 01:02:04;;;;;;;45.10;20.80;;;;;;;-1.12;100.00;98000.09;109394;1270;22533;-80
2023/01/23 01:04:35;;;;;;;43.00;19.60;;;;;;;-1.12;100.00;98002.60;109320;1270;22537;-80
2023/01/23 01:07:06;;;;;;;54.10;22.00;;;;;;;-1.11;100.00;98008.69;109299;1270;22536;-80
2023/01/23 01:09:37;;;;;;;67.70;22.70;;;;;;;-1.10;100.00;98008.70;109293;1270;22533;-81
2023/01/23 01:12:09;;;;;;;41.90;20.90;;;;;;;-1.10;100.00;98012.66;109333;1270;22532;-80
2023/01/23 01:14:40;;;;;;;72.90;22.60;;;;;;;-1.13;100.00;98012.16;109295;1268;25344;-80
2023/01/23 01:17:11;;;;;;;72.40;22.20;;;;;;;-1.16;100.00;98012.13;109398;1269;22531;-80
2023/01/23 01:19:42;;;;;;;50.10;21.40;;;;;;;-1.17;100.00;98011.61;109394;1270;23295;-80
2023/01/23 01:22:13;;;;;;;47.30;21.20;;;;;;;-1.16;100.00;98009.37;109296;1271;25364;-80
2023/01/23 01:24:44;;;;;;;63.90;22.00;;;;;;;-1.12;100.00;98007.39;109356;1263;22521;-80
2023/01/23 01:27:15;;;;;;;42.90;19.40;;;;;;;-1.12;100.00;98003.17;109363;1269;25502;-81
2023/01/23 01:29:46;;;;;;;40.90;18.60;;;;;;;-1.15;100.00;98005.66;109366;1270;22538;-80
2023/01/23 01:32:17;;;;;;;40.00;18.00;;;;;;;-1.23;100.00;98008.02;109343;1271;25217;-80
2023/01/23 01:34:48;;;;;;;41.10;18.70;;;;;;;-1.28;100.00;98006.30;109372;1270;22528;-80
2023/01/23 01:37:22;;;;;;;42.20;17.80;;;;;;;-1.33;100.00;98009.54;109325;1270;22534;-80
2023/01/23 01:39:56;;;;;;;34.00;18.00;;;;;;;-1.37;100.00;98007.10;109382;1270;22544;-80
2023/01/23 01:42:27;;;;;;;33.80;17.80;;;;;;;-1.41;100.00;98005.40;109372;1270;24238;-80
2023/01/23 01:45:00;;;;;;;42.60;19.40;;;;;;;-1.44;100.00;98006.71;109418;1270;22534;-80
2023/01/23 01:47:31;;;;;;;49.30;19.40;;;;;;;-1.45;100.00;98006.68;109376;1264;22567;-79
2023/01/23 01:50:06;;;;;;;34.60;16.40;;;;;;;-1.44;100.00;98005.67;109374;1271;25438;-80
2023/01/23 01:52:37;;;;;;;73.60;19.30;;;;;;;-1.42;100.00;98005.63;109331;1270;22514;-80
2023/01/23 01:55:09;;;;;;;65.20;17.20;;;;;;;-1.42;100.00;98005.65;109295;1271;22539;-80
2023/01/23 01:57:47;;;;;;;88.40;20.70;;;;;;;-1.47;100.00;98009.52;109326;1264;22632;-79
2023/01/23 02:00:20;;;;;;;63.60;17.90;;;;;;;-1.51;100.00;98007.29;109062;1270;22521;-79
2023/01/23 02:02:54;;;;;;;104.20;20.60;;;;;;;-1.52;100.00;98006.39;108909;1270;23045;-80
2023/01/23 02:05:29;;;;;;;75.30;18.00;;;;;;;-1.52;100.00;98009.64;109327;1272;22519;-80
2023/01/23 02:08:08;;;;;;;84.00;20.00;;;;;;;-1.51;100.00;98011.00;109357;1271;22529;-80
2023/01/23 02:10:39;;;;;;;69.10;17.60;;;;;;;-1.51;100.00;98009.70;109319;1270;23179;-80
2023/01/23 02:13:31;;;;;;;128.10;22.70;;;;;;;-1.52;100.00;98010.70;109424;1263;24196;-80
2023/01/23 02:16:04;;;;;;;58.10;18.30;;;;;;;-1.52;100.00;98009.64;109388;1270;22516;-80
2023/01/23 02:18:40;;;;;;;53.90;20.60;;;;;;;-1.49;100.00;98007.29;109287;1272;22553;-80
2023/01/23 02:21:12;;;;;;;60.80;21.90;;;;;;;-1.45;100.00;98006.45;109354;1270;22524;-80
2023/01/23 02:23:56;;;;;;;36.70;18.00;;;;;;;-1.43;100.00;98010.80;109398;1271;22525;-80
2023/01/23 02:26:32;;;;;;;37.10;16.50;;;;;;;-1.40;100.00;98015.81;109421;1270;22525;-80
2023/01/23 02:29:05;;;;;;;57.40;19.20;;;;;;;-1.36;100.00;98020.77;109433;1268;22553;-80
2023/01/23 02:31:36;;;;;;;50.70;16.60;;;;;;;-1.33;100.00;98022.64;109445;1270;22542;-80
2023/01/23 02:34:06;;;;;;;33.10;16.30;;;;;;;-1.31;100.00;98025.27;109444;1270;22538;-80
2023/01/23 02:36:37;;;;;;;43.20;18.40;;;;;;;-1.31;100.00;98026.63;109439;1267;22515;-80
2023/01/23 02:39:10;;;;;;;33.60;16.40;;;;;;;-1.30;100.00;98024.29;109446;1270;22514;-79
2023/01/23 02:41:47;;;;;;;33.60;15.60;;;;;;;-1.31;100.00;98026.92;108971;1269;22521;-79
2023/01/23 02:44:25;;;;;;;30.40;11.40;;;;;;;-1.33;100.00;98030.45;109072;1269;22537;-79
2023/01/23 02:46:57;;;;;;;36.10;17.10;;;;;;;-1.39;100.00;98035.02;109419;1270;24259;-80
2023/01/23 02:49:28;;;;;;;38.20;14.70;;;;;;;-1.44;100.00;98036.03;109347;1269;22541;-80
2023/01/23 02:51:59;;;;;;;45.60;17.30;;;;;;;-1.47;100.00;98044.04;109471;1270;25344;-80
2023/01/23 02:54:30;;;;;;;42.60;17.50;;;;;;;-1.47;100.00;98042.33;109436;1269;22543;-80
2023/01/23 02:57:02;;;;;;;66.30;18.80;;;;;;;-1.48;100.00;98041.35;109389;1271;22557;-81
2023/01/23 03:02:21;;;;;;;36.70;15.40;;;;;;;-1.43;100.00;98034.92;109427;1270;22923;-81
2023/01/23 03:04:52;;;;;;;46.80;17.80;;;;;;;-1.44;100.00;98036.36;109435;1270;24260;-80
2023/01/23 03:07:23;;;;;;;41.40;17.00;;;;;;;-1.45;100.00;98037.93;109433;1270;24225;-80
2023/01/23 03:09:54;;;;;;;45.70;15.30;;;;;;;-1.47;100.00;98037.29;109358;1269;24240;-80
2023/01/23 03:12:25;;;;;;;39.30;15.00;;;;;;;-1.50;100.00;98038.98;109443;1270;22758;-81
2023/01/23 03:14:57;;;;;;;43.60;14.00;;;;;;;-1.53;100.00;98046.02;109317;1264;22540;-80
2023/01/23 03:17:29;;;;;;;33.30;13.20;;;;;;;-1.54;100.00;98048.59;109437;1268;25309;-80
2023/01/23 03:20:00;;;;;;;65.90;18.60;;;;;;;-1.54;100.00;98050.13;109436;1270;22533;-80
2023/01/23 03:22:31;;;;;;;42.70;16.00;;;;;;;-1.55;100.00;98053.04;109392;1270;22561;-80
2023/01/23 03:25:02;;;;;;;46.90;17.00;;;;;;;-1.57;100.00;98060.83;109414;1270;23198;-80
2023/01/23 03:27:33;;;;;;;27.50;14.30;;;;;;;-1.57;100.00;98065.32;109319;1270;29510;-80
2023/01/23 03:30:14;;;;;;;31.60;15.40;;;;;;;-1.58;100.00;98065.33;109308;1270;22577;-80
2023/01/23 03:32:46;;;;;;;42.70;15.00;;;;;;;-1.57;100.00;98067.34;109302;1271;22522;-80
2023/01/23 03:35:20;;;;;;;29.50;14.10;;;;;;;-1.57;100.00;98072.27;109289;1270;22522;-80
2023/01/23 03:37:51;;;;;;;28.70;14.50;;;;;;;-1.57;100.00;98071.79;109440;1270;22548;-80
2023/01/23 03:43:12;;;;;;;25.60;14.70;;;;;;;-1.59;100.00;98072.66;109386;1270;22524;-80
2023/01/23 03:45:43;;;;;;;30.80;14.40;;;;;;;-1.58;100.00;98071.53;109430;1270;23991;-79
2023/01/23 03:48:14;;;;;;;26.80;13.60;;;;;;;-1.56;100.00;98072.17;109258;1269;26607;-79
2023/01/23 03:50:45;;;;;;;29.80;15.00;;;;;;;-1.55;100.00;98076.55;109392;1263;25045;-79
2023/01/23 03:53:16;;;;;;;28.20;14.20;;;;;;;-1.52;100.00;98076.64;109359;1266;22534;-79
2023/01/23 03:55:48;;;;;;;28.10;14.70;;;;;;;-1.48;100.00;98077.79;109307;1264;22528;-79
2023/01/23 03:58:19;;;;;;;28.30;14.80;;;;;;;-1.44;100.00;98076.64;109405;1270;22531;-79
2023/01/23 04:00:50;;;;;;;25.40;13.20;;;;;;;-1.40;100.00;98075.27;109423;1270;22518;-79
2023/01/23 04:03:21;;;;;;;30.20;14.30;;;;;;;-1.36;100.00;98074.39;109315;1272;22524;-80
2023/01/23 04:05:57;;;;;;;26.20;13.90;;;;;;;-1.32;100.00;98076.88;109362;1270;22587;-80
2023/01/23 04:08:28;;;;;;;27.20;13.10;;;;;;;-1.30;100.00;98087.04;109362;1269;22538;-80
2023/01/23 04:11:07;;;;;;;31.00;15.50;;;;;;;-1.31;100.00;98095.30;109418;1270;22623;-80
2023/01/23 04:13:38;;;;;;;31.80;14.60;;;;;;;-1.32;100.00;98100.64;109324;1271;22568;-80
2023/01/23 04:16:10;;;;;;;25.30;14.50;;;;;;;-1.32;100.00;98105.33;109386;1260;22528;-80
2023/01/23 04:18:41;;;;;;;23.30;13.40;;;;;;;-1.29;100.00;98102.13;109282;1271;22971;-80
2023/01/23 04:21:12;;;;;;;24.70;13.40;;;;;;;-1.25;100.00;98102.30;109313;1271;22555;-80
2023/01/23 04:23:43;;;;;;;25.40;12.70;;;;;;;-1.23;100.00;98096.54;109315;1271;22524;-80
2023/01/23 04:26:14;;;;;;;27.70;14.10;;;;;;;-1.22;100.00;98092.40;109267;1272;23519;-80
2023/01/23 04:28:45;;;;;;;19.80;11.50;;;;;;;-1.18;100.00;98091.19;109315;1269;24313;-80
2023/01/23 04:31:16;;;;;;;21.20;11.90;;;;;;;-1.16;100.00;98095.56;109355;1266;22532;-80
2023/01/23 04:33:47;;;;;;;20.90;11.00;;;;;;;-1.14;100.00;98092.14;109326;1271;22525;-81
2023/01/23 04:36:18;;;;;;;18.40;10.50;;;;;;;-1.12;100.00;98089.77;109419;1270;23821;-81
2023/01/23 04:38:49;;;;;;;18.00;9.60;;;;;;;-1.11;100.00;98087.76;109433;1270;22527;-81
2023/01/23 04:41:25;;;;;;;18.70;10.40;;;;;;;-1.08;100.00;98086.61;109407;1270;22525;-81
2023/01/23 04:44:18;;;;;;;17.70;10.30;;;;;;;-1.05;100.00;98090.79;109420;1270;26471;-81
2023/01/23 04:46:48;;;;;;;15.50;9.30;;;;;;;-1.04;100.00;98098.65;109354;1266;24336;-80
2023/01/23 04:49:20;;;;;;;15.00;9.60;;;;;;;-1.02;100.00;98104.79;109250;1271;25372;-80
2023/01/23 04:51:51;;;;;;;16.80;10.10;;;;;;;-0.99;100.00;98098.89;109362;1271;22517;-80
2023/01/23 04:54:23;;;;;;;18.30;9.30;;;;;;;-0.97;100.00;98100.59;109286;1270;22559;-80
2023/01/23 04:56:56;;;;;;;17.30;10.40;;;;;;;-0.95;100.00;98108.75;109259;1270;25481;-79
2023/01/23 04:59:27;;;;;;;19.50;10.70;;;;;;;-0.96;100.00;98104.61;109393;1263;22550;-80
2023/01/23 05:01:58;;;;;;;22.70;12.20;;;;;;;-0.93;100.00;98104.02;109283;1272;25414;-80
2023/01/23 05:04:29;;;;;;;20.70;12.90;;;;;;;-0.91;100.00;98104.86;109424;1271;22541;-80
2023/01/23 05:06:59;;;;;;;21.50;11.30;;;;;;;-0.90;100.00;98105.92;109349;1269;25359;-80
2023/01/23 05:09:33;;;;;;;20.30;11.60;;;;;;;-0.90;100.00;98103.61;109317;1269;23177;-80
2023/01/23 05:12:07;;;;;;;18.70;11.20;;;;;;;-0.89;100.00;98103.70;109404;1271;22542;-80
2023/01/23 05:14:38;;;;;;;18.50;11.20;;;;;;;-0.89;100.00;98108.02;109398;1264;22523;-80
2023/01/23 05:17:09;;;;;;;18.10;11.10;;;;;;;-0.87;100.00;98110.11;109359;1260;25554;-80
2023/01/23 05:19:40;;;;;;;16.30;10.20;;;;;;;-0.86;100.00;98109.61;109430;1270;22532;-79
2023/01/23 05:22:12;;;;;;;18.00;10.70;;;;;;;-0.86;100.00;98110.81;109387;1270;22522;-80
2023/01/23 05:24:43;;;;;;;16.80;10.20;;;;;;;-0.86;100.00;98107.17;109327;1270;23289;-80
2023/01/23 05:27:14;;;;;;;18.00;10.20;;;;;;;-0.84;100.00;98110.20;109439;1266;23275;-80
2023/01/23 05:29:45;;;;;;;15.10;8.60;;;;;;;-0.85;100.00;98110.88;109358;1270;22511;-80
2023/01/23 05:32:16;;;;;;;15.80;9.20;;;;;;;-0.84;100.00;98113.27;109383;1272;22521;-80
2023/01/23 05:34:48;;;;;;;12.90;8.40;;;;;;;-0.84;100.00;98116.36;109428;1270;22574;-80
2023/01/23 05:37:24;;;;;;;14.90;9.10;;;;;;;-0.84;100.00;98117.42;109457;1270;22515;-79
2023/01/23 05:39:55;;;;;;;14.90;8.60;;;;;;;-0.83;100.00;98117.43;109478;1270;22563;-79
2023/01/23 05:42:27;;;;;;;15.00;9.50;;;;;;;-0.81;100.00;98117.13;109437;1269;22543;-80
2023/01/23 05:44:58;;;;;;;13.50;7.80;;;;;;;-0.80;100.00;98122.39;109489;1270;22532;-80
2023/01/23 05:47:31;;;;;;;12.70;7.90;;;;;;;-0.79;100.00;98129.52;109292;1270;25560;-79
2023/01/23 05:50:02;;;;;;;12.60;7.20;;;;;;;-0.78;100.00;98129.41;109462;1270;22513;-79
2023/01/23 05:52:33;;;;;;;13.20;8.20;;;;;;;-0.76;100.00;98132.85;109302;1269;22556;-80
2023/01/23 05:55:05;;;;;;;14.20;8.40;;;;;;;-0.75;100.00;98134.30;109475;1270;24992;-80
2023/01/23 05:57:36;;;;;;;14.70;8.60;;;;;;;-0.74;100.00;98138.33;109340;1270;22542;-79
2023/01/23 06:00:13;;;;;;;12.90;7.30;;;;;;;-0.73;100.00;98144.48;109002;1271;22539;-79
2023/01/23 06:02:46;;;;;;;13.10;7.10;;;;;;;-0.73;100.00;98150.34;109377;1264;22515;-79
2023/01/23 06:05:17;;;;;;;23.80;8.70;;;;;;;-0.72;100.00;98152.55;109452;1267;22518;-79
2023/01/23 06:07:48;;;;;;;13.50;7.90;;;;;;;-0.70;100.00;98151.45;109421;1270;22574;-79
2023/01/23 06:10:20;;;;;;;13.10;8.10;;;;;;;-0.68;100.00;98150.86;109373;1270;22520;-79
2023/01/23 06:12:52;;;;;;;13.10;8.50;;;;;;;-0.65;100.00;98147.95;109381;1270;22600;-79
2023/01/23 06:15:23;;;;;;;12.50;8.00;;;;;;;-0.63;100.00;98154.08;109433;1271;22524;-80
2023/01/23 06:17:54;;;;;;;12.10;7.20;;;;;;;-0.61;100.00;98157.16;109287;1270;22529;-80
2023/01/23 06:20:25;;;;;;;11.00;6.90;;;;;;;-0.59;100.00;98156.48;109429;1267;22569;-80
2023/01/23 06:22:56;;;;;;;12.10;6.80;;;;;;;-0.58;100.00;98154.84;109431;1271;25309;-80
2023/01/23 06:25:28;;;;;;;9.10;5.60;;;;;;;-0.56;100.00;98155.48;109345;1270;22538;-80
2023/01/23 06:27:59;;;;;;;11.60;7.10;;;;;;;-0.53;100.00;98157.90;109309;1271;22622;-79
2023/01/23 06:30:30;;;;;;;10.00;6.30;;;;;;;-0.50;100.00;98164.03;109430;1269;22571;-79
2023/01/23 06:33:01;;;;;;;10.90;6.20;;;;;;;-0.49;100.00;98161.84;109420;1266;22541;-79
2023/01/23 06:35:32;;;;;;;8.90;5.60;;;;;;;-0.48;100.00;98167.27;109463;1264;22532;-79
2023/01/23 06:38:03;;;;;;;9.50;5.70;;;;;;;-0.47;100.00;98171.27;109398;1270;25271;-79
2023/01/23 06:40:34;;;;;;;8.70;5.60;;;;;;;-0.45;100.00;98170.41;109470;1268;23009;-79
2023/01/23 06:43:08;;;;;;;8.60;5.60;;;;;;;-0.42;100.00;98174.23;109439;1271;26408;-80
2023/01/23 06:45:39;;;;;;;7.90;4.80;;;;;;;-0.39;100.00;98180.17;109286;1264;22540;-80
2023/01/23 06:48:10;;;;;;;8.10;5.20;;;;;;;-0.36;100.00;98176.66;109419;1264;24249;-80
2023/01/23 06:50:41;;;;;;;7.30;4.90;;;;;;;-0.34;100.00;98179.91;109496;1268;23198;-80
2023/01/23 06:53:15;;;;;;;7.60;5.10;;;;;;;-0.32;100.00;98178.98;109395;1269;23301;-80
2023/01/23 06:55:46;;;;;;;8.60;5.30;;;;;;;-0.28;100.00;98183.83;109471;1266;22541;-80
2023/01/23 06:58:17;;;;;;;8.30;5.30;;;;;;;-0.26;100.00;98180.93;109409;1270;22524;-80
2023/01/23 07:00:51;;;;;;;7.50;4.80;;;;;;;-0.23;100.00;98182.70;109434;1270;22534;-80
2023/01/23 07:03:22;;;;;;;8.20;5.60;;;;;;;-0.21;100.00;98185.61;109391;1267;25350;-79
2023/01/23 07:05:53;;;;;;;8.90;5.10;;;;;;;-0.19;100.00;98190.06;109440;1270;26548;-80
2023/01/23 07:08:24;;;;;;;7.80;5.30;;;;;;;-0.16;100.00;98189.07;109415;1264;25974;-79
2023/01/23 07:10:54;;;;;;;9.40;5.80;;;;;;;-0.15;100.00;98192.02;109464;1270;22542;-79
2023/01/23 07:13:25;;;;;;;9.90;5.80;;;;;;;-0.13;100.00;98194.73;109306;1269;22511;-82
2023/01/23 07:15:56;;;;;;;9.20;5.50;;;;;;;-0.10;100.00;98197.78;109413;1272;22576;-82
2023/01/23 07:18:29;;;;;;;10.30;6.00;;;;;;;-0.08;100.00;98203.39;109404;1271;25303;-81
2023/01/23 07:21:00;;;;;;;8.90;5.10;;;;;;;-0.05;100.00;98201.20;109456;1271;22551;-82
2023/01/23 07:23:31;;;;;;;9.10;5.40;;;;;;;-0.01;100.00;98201.08;109407;1270;22539;-83
2023/01/23 07:26:03;;;;;;;8.00;5.80;;;;;;;0.03;100.00;98201.13;109432;1270;22525;-80
2023/01/23 07:28:34;;;;;;;9.30;5.40;;;;;;;0.07;100.00;98202.83;109413;1270;23387;-81
2023/01/23 07:31:05;;;;;;;7.70;4.90;;;;;;;0.10;100.00;98201.53;109419;1272;22519;-80
2023/01/23 07:33:37;;;;;;;9.20;5.70;;;;;;;0.13;100.00;98207.60;109358;1271;22570;-80
2023/01/23 07:36:09;;;;;;;10.00;6.00;;;;;;;0.17;100.00;98208.60;109422;1269;22683;-80
2023/01/23 07:38:40;;;;;;;8.70;5.70;;;;;;;0.20;100.00;98207.77;109344;1271;22561;-80
2023/01/23 07:41:11;;;;;;;9.30;6.10;;;;;;;0.22;100.00;98214.14;109494;1270;22623;-80
2023/01/23 07:43:42;;;;;;;14.80;10.70;;;;;;;0.22;100.00;98214.83;109435;1270;22556;-81
2023/01/23 07:46:13;;;;;;;16.30;10.80;;;;;;;0.18;100.00;98216.80;109313;1272;22518;-80
2023/01/23 07:48:44;;;;;;;15.60;9.90;;;;;;;0.15;100.00;98220.29;109392;1271;25294;-80
2023/01/23 07:51:17;;;;;;;15.80;10.10;;;;;;;0.15;100.00;98221.91;109325;1271;22537;-81
2023/01/23 07:53:48;;;;;;;14.70;8.60;;;;;;;0.15;100.00;98226.23;109420;1270;22555;-79
2023/01/23 07:56:19;;;;;;;14.60;8.30;;;;;;;0.19;100.00;98223.75;109398;1264;22528;-79
2023/01/23 07:58:52;;;;;;;12.60;7.80;;;;;;;0.23;100.00;98224.03;109361;1267;25376;-79
2023/01/23 08:01:23;;;;;;;13.90;8.00;;;;;;;0.29;100.00;98221.86;109442;1270;22521;-79
2023/01/23 08:03:53;;;;;;;13.70;7.70;;;;;;;0.34;100.00;98220.06;109441;1272;22524;-79
2023/01/23 08:06:26;;;;;;;13.10;7.60;;;;;;;0.38;100.00;98223.39;109391;1248;22547;-79
2023/01/23 08:08:59;;;;;;;13.70;7.10;;;;;;;0.38;100.00;98227.80;109378;1253;22543;-79
2023/01/23 08:11:30;;;;;;;12.40;6.90;;;;;;;0.39;100.00;98229.25;108977;1272;22564;-79
2023/01/23 08:14:01;;;;;;;11.30;6.90;;;;;;;0.42;100.00;98233.73;109366;1271;22543;-79
2023/01/23 08:16:32;;;;;;;12.90;7.70;;;;;;;0.52;100.00;98233.52;109386;1267;24965;-79
2023/01/23 08:19:05;;;;;;;15.60;8.10;;;;;;;0.61;100.00;98233.94;109341;1267;22531;-78
2023/01/23 08:21:36;;;;;;;15.40;9.10;;;;;;;0.68;100.00;98234.05;109299;1272;22528;-79
2023/01/23 08:24:10;;;;;;;11.40;7.90;;;;;;;0.73;100.00;98236.55;109331;1271;25399;-79
2023/01/23 08:26:42;;;;;;;13.00;8.50;;;;;;;0.71;100.00;98239.00;108951;1271;22518;-80
2023/01/23 08:29:14;;;;;;;14.20;9.30;;;;;;;0.65;100.00;98240.02;108966;1271;22547;-79
2023/01/23 08:31:45;;;;;;;18.80;11.60;;;;;;;0.60;100.00;98241.60;109365;1264;24272;-79
2023/01/23 08:34:16;;;;;;;25.20;13.30;;;;;;;0.58;100.00;98245.63;109297;1270;24958;-80
2023/01/23 08:36:46;;;;;;;87.50;18.70;;;;;;;0.63;100.00;98244.21;109346;1264;22535;-79
2023/01/23 08:39:18;;;;;;;27.00;15.10;;;;;;;0.67;100.00;98243.83;109079;1271;22529;-77
2023/01/23 08:41:49;;;;;;;50.30;17.80;;;;;;;0.70;100.00;98241.95;108996;1264;22549;-78
2023/01/23 08:44:20;;;;;;;25.00;14.20;;;;;;;0.73;100.00;98243.70;109055;1271;22536;-79
2023/01/23 08:46:51;;;;;;;29.00;14.30;;;;;;;0.74;100.00;98244.70;108960;1261;22534;-79
2023/01/23 08:49:22;;;;;;;24.70;14.90;;;;;;;0.76;100.00;98250.06;108993;1270;22528;-78
2023/01/23 08:51:53;;;;;;;38.30;15.70;;;;;;;0.73;100.00;98250.45;108888;1271;22525;-79
2023/01/23 08:54:24;;;;;;;23.10;13.60;;;;;;;0.72;100.00;98254.56;108845;1248;24380;-78
2023/01/23 08:56:55;;;;;;;40.80;13.90;;;;;;;0.70;100.00;98255.83;108813;1267;22547;-78
2023/01/23 08:59:26;;;;;;;39.60;16.30;;;;;;;0.68;100.00;98255.49;108830;1264;22534;-78
2023/01/23 09:01:59;;;;;;;37.70;17.40;;;;;;;0.67;100.00;98258.60;108876;1260;22561;-78
2023/01/23 09:04:30;;;;;;;52.40;20.30;;;;;;;0.65;100.00;98251.48;108863;1264;22546;-78
2023/01/23 09:07:01;;;;;;;47.50;20.90;;;;;;;0.70;100.00;98259.52;108867;1264;22543;-78
2023/01/23 09:09:32;;;;;;;59.30;19.30;;;;;;;0.67;100.00;98264.64;108880;1264;22557;-78
2023/01/23 09:12:03;;;;;;;50.10;21.90;;;;;;;0.62;100.00;98271.21;108837;1264;22521;-78
2023/01/23 09:14:34;;;;;;;62.80;22.40;;;;;;;0.61;100.00;98270.20;108863;1266;23539;-78
2023/01/23 09:17:07;;;;;;;50.40;23.40;;;;;;;0.64;100.00;98264.54;108977;1271;22639;-78
2023/01/23 09:19:38;;;;;;;93.00;27.70;;;;;;;0.67;100.00;98264.21;108946;1271;22525;-80
2023/01/23 09:22:09;;;;;;;41.10;23.60;;;;;;;0.67;100.00;98265.55;109481;1270;22540;-78
2023/01/23 09:24:40;;;;;;;42.90;26.20;;;;;;;0.77;100.00;98260.98;109016;1271;24056;-78
2023/01/23 09:27:11;;;;;;;39.90;23.50;;;;;;;0.83;100.00;98264.52;108902;1264;22519;-78
2023/01/23 09:29:42;;;;;;;38.60;23.90;;;;;;;0.86;100.00;98268.10;109062;1264;22542;-78
2023/01/23 09:32:13;;;;;;;36.50;22.30;;;;;;;0.82;100.00;98267.94;109077;1253;22541;-78
2023/01/23 09:34:47;;;;;;;34.10;21.90;;;;;;;0.78;100.00;98267.72;109114;1264;22572;-78
2023/01/23 09:37:18;;;;;;;50.70;23.70;;;;;;;0.76;100.00;98273.55;109123;1264;22541;-79
2023/01/23 09:39:49;;;;;;;45.30;25.90;;;;;;;0.71;100.00;98269.80;109094;1264;22565;-78
2023/01/23 09:42:23;;;;;;;58.70;27.60;;;;;;;0.69;100.00;98267.75;109043;1270;22521;-77
2023/01/23 09:45:00;;;;;;;45.20;26.30;;;;;;;0.66;100.00;98267.86;108985;1271;22566;-78
2023/01/23 09:47:36;;;;;;;49.60;28.00;;;;;;;0.64;100.00;98269.08;108933;1264;22525;-76
2023/01/23 09:50:14;;;;;;;37.00;23.40;;;;;;;0.65;100.00;98266.55;109118;1264;22524;-81
2023/01/23 09:52:53;;;;;;;30.30;19.60;;;;;;;0.66;100.00;98265.62;109063;1264;22520;-80
2023/01/23 09:55:36;;;;;;;28.20;19.20;;;;;;;0.70;100.00;98260.89;109127;1270;82426;-82
2023/01/23 09:58:17;;;;;;;26.60;17.90;;;;;;;0.70;100.00;98256.61;109254;1264;22540;-83
2023/01/23 10:00:51;;;;;;;26.70;17.20;;;;;;;0.68;100.00;98257.58;109125;1264;23846;-79
2023/01/23 10:03:23;;;;;;;22.20;15.60;;;;;;;0.65;100.00;98256.69;109078;1269;22542;-78
2023/01/23 10:06:14;;;;;;;22.60;14.40;;;;;;;0.68;100.00;98256.34;109207;1271;22546;-81
2023/01/23 10:08:58;;;;;;;21.00;15.20;;;;;;;0.70;100.00;98251.44;109171;1264;22537;-78
2023/01/23 10:11:43;;;;;;;23.20;15.20;;;;;;;0.70;100.00;98255.61;109195;1267;22583;-78
2023/01/23 10:14:39;;;;;;;23.20;14.70;;;;;;;0.74;100.00;98249.43;109293;1271;25420;-79
2023/01/23 10:17:20;;;;;;;20.30;13.70;;;;;;;0.81;100.00;98249.25;109225;1263;24030;-84
2023/01/23 10:20:24;;;;;;;21.80;15.00;;;;;;;0.78;100.00;98245.95;109116;1264;22521;-83
2023/01/23 10:23:04;;;;;;;20.50;13.20;;;;;;;0.76;100.00;98247.61;109220;1270;23741;-78
2023/01/23 10:25:39;;;;;;;20.40;13.80;;;;;;;0.80;100.00;98245.86;109186;1264;66558;-80
2023/01/23 10:28:29;;;;;;;21.90;15.20;;;;;;;0.90;100.00;98246.91;109103;1270;24248;-77
2023/01/23 10:31:06;;;;;;;22.00;13.70;;;;;;;0.98;100.00;98244.58;109072;1271;22581;-76
2023/01/23 10:33:46;;;;;;;24.30;14.60;;;;;;;1.02;100.00;98244.10;109077;1264;23308;-75
2023/01/23 10:36:26;;;;;;;20.10;13.50;;;;;;;1.05;100.00;98243.58;109110;1264;22533;-75
2023/01/23 10:39:04;;;;;;;20.70;14.40;;;;;;;1.09;100.00;98243.95;109148;1263;22539;-76
2023/01/23 10:41:35;;;;;;;18.00;12.50;;;;;;;1.12;100.00;98243.08;109033;1264;25418;-76
2023/01/23 10:44:16;;;;;;;19.30;13.30;;;;;;;1.11;100.00;98240.21;109085;1263;22647;-77
2023/01/23 10:46:54;;;;;;;16.30;11.80;;;;;;;1.09;100.00;98241.34;108858;1264;24248;-77
2023/01/23 10:49:35;;;;;;;15.40;11.10;;;;;;;1.03;100.00;98240.63;108969;1267;22528;-76
2023/01/23 10:52:26;;;;;;;16.40;11.90;;;;;;;0.95;100.00;98237.06;108960;1270;22537;-76
2023/01/23 10:54:57;;;;;;;19.50;12.30;;;;;;;0.89;100.00;98233.73;109007;1263;23431;-76
2023/01/23 10:57:31;;;;;;;19.90;13.10;;;;;;;0.88;100.00;98228.48;109021;1270;23593;-75
2023/01/23 11:00:07;;;;;;;19.20;13.00;;;;;;;0.93;100.00;98225.86;109037;1263;22546;-75
2023/01/23 11:02:39;;;;;;;18.60;12.90;;;;;;;1.00;100.00;98227.99;108991;1264;22548;-76
2023/01/23 11:05:35;;;;;;;21.60;14.20;;;;;;;1.06;100.00;98222.81;109043;1267;22669;-78
2023/01/23 11:08:24;;;;;;;19.70;15.40;;;;;;;1.10;100.00;98217.96;108987;1270;22622;-76
2023/01/23 11:11:15;;;;;;;20.90;14.90;;;;;;;1.05;100.00;98214.97;109143;1271;26419;-75
2023/01/23 11:13:48;;;;;;;24.90;14.90;;;;;;;1.08;100.00;98209.50;108940;1264;23811;-76
2023/01/23 11:16:21;;;;;;;21.10;15.20;;;;;;;1.15;100.00;98209.27;108952;1263;22531;-76
2023/01/23 11:18:55;;;;;;;20.20;13.60;;;;;;;1.21;100.00;98208.81;108985;1271;22535;-77
2023/01/23 11:21:30;;;;;;;19.10;13.20;;;;;;;1.20;100.00;98207.19;109118;1248;22541;-77
2023/01/23 11:24:17;;;;;;;19.10;14.20;;;;;;;1.22;100.00;98208.52;109024;1270;22561;-75
2023/01/23 11:26:57;;;;;;;26.40;13.10;;;;;;;1.28;100.00;98207.60;109128;1264;22564;-75
2023/01/23 11:29:30;;;;;;;18.50;13.40;;;;;;;1.31;100.00;98199.48;109080;1270;22534;-77
2023/01/23 11:32:05;;;;;;;18.60;13.10;;;;;;;1.35;100.00;98197.98;109152;1271;22532;-76
2023/01/23 11:34:41;;;;;;;16.50;12.20;;;;;;;1.40;100.00;98196.26;108928;1271;22535;-76
2023/01/23 11:37:19;;;;;;;17.20;12.80;;;;;;;1.46;100.00;98195.38;109091;1260;25299;-76
2023/01/23 11:39:56;;;;;;;15.50;11.80;;;;;;;1.52;100.00;98198.38;109234;1269;22554;-76